sensor_id;sensor_type;location;lat;lon;timestamp;P1;durP1;ratioP1;P2;durP2;ratioP2
6735;SDS011;3405;50.576;12.364;2023-02-28T00:00:01;4.10;;;2.95;;
6735;SDS011;3405;50.576;12.364;2023-02-28T00:02:33;4.03;;;2.80;;
6735;SDS011;3405;50.576;12.364;2023-02-28T00:04:59;2.80;;;2.55;;
6735;SDS011;3405;50.576;12.364;2023-02-28T00:07:26;3.10;;;2.75;;
6735;SDS011;3405;50.576;12.364;2023-02-28T00:09:52;4.03;;;2.97;;
6735;SDS011;3405;50.576;12.364;2023-02-28T00:12:18;3.47;;;3.00;;
6735;SDS011;3405;50.576;12.364;2023-02-28T00:14:44;4.10;;;2.80;;
6735;SDS011;3405;50.576;12.364;2023-02-28T00:17:10;2.88;;;2.58;;
6735;SDS011;3405;50.576;12.364;2023-02-28T00:19:36;2.75;;;2.55;;
6735;SDS011;3405;50.576;12.364;2023-02-28T00:22:02;3.03;;;2.40;;
6735;SDS011;3405;50.576;12.364;2023-02-28T00:24:28;3.10;;;2.80;;
6735;SDS011;3405;50.576;12.364;2023-02-28T00:26:54;2.97;;;2.65;;
6735;SDS011;3405;50.576;12.364;2023-02-28T00:29:20;2.75;;;2.45;;
6735;SDS011;3405;50.576;12.364;2023-02-28T00:31:46;2.78;;;2.45;;
6735;SDS011;3405;50.576;12.364;2023-02-28T00:34:12;3.22;;;2.70;;
6735;SDS011;3405;50.576;12.364;2023-02-28T00:36:37;3.47;;;2.78;;
6735;SDS011;3405;50.576;12.364;2023-02-28T00:39:03;2.72;;;2.40;;
6735;SDS011;3405;50.576;12.364;2023-02-28T00:41:29;2.55;;;2.28;;
6735;SDS011;3405;50.576;12.364;2023-02-28T00:43:55;2.50;;;2.30;;
6735;SDS011;3405;50.576;12.364;2023-02-28T00:46:21;3.75;;;2.58;;
6735;SDS011;3405;50.576;12.364;2023-02-28T00:48:47;2.90;;;2.60;;
6735;SDS011;3405;50.576;12.364;2023-02-28T00:51:13;3.10;;;2.45;;
6735;SDS011;3405;50.576;12.364;2023-02-28T00:53:39;3.28;;;2.47;;
6735;SDS011;3405;50.576;12.364;2023-02-28T00:56:05;3.05;;;2.47;;
6735;SDS011;3405;50.576;12.364;2023-02-28T00:58:31;2.80;;;2.42;;
6735;SDS011;3405;50.576;12.364;2023-02-28T01:00:57;2.92;;;2.65;;
6735;SDS011;3405;50.576;12.364;2023-02-28T01:03:23;2.75;;;2.30;;
6735;SDS011;3405;50.576;12.364;2023-02-28T01:05:49;2.92;;;2.63;;
6735;SDS011;3405;50.576;12.364;2023-02-28T01:08:15;2.50;;;2.30;;
6735;SDS011;3405;50.576;12.364;2023-02-28T01:10:41;2.95;;;2.65;;
6735;SDS011;3405;50.576;12.364;2023-02-28T01:13:07;2.95;;;2.30;;
6735;SDS011;3405;50.576;12.364;2023-02-28T01:15:33;3.28;;;2.70;;
6735;SDS011;3405;50.576;12.364;2023-02-28T01:17:59;2.63;;;2.33;;
6735;SDS011;3405;50.576;12.364;2023-02-28T01:20:25;4.00;;;2.53;;
6735;SDS011;3405;50.576;12.364;2023-02-28T01:22:51;2.97;;;2.47;;
6735;SDS011;3405;50.576;12.364;2023-02-28T01:25:17;2.75;;;2.40;;
6735;SDS011;3405;50.576;12.364;2023-02-28T01:27:43;2.58;;;2.38;;
6735;SDS011;3405;50.576;12.364;2023-02-28T01:30:09;2.60;;;2.40;;
6735;SDS011;3405;50.576;12.364;2023-02-28T01:32:35;2.90;;;2.50;;
6735;SDS011;3405;50.576;12.364;2023-02-28T01:35:01;2.88;;;2.47;;
6735;SDS011;3405;50.576;12.364;2023-02-28T01:37:27;2.63;;;2.40;;
6735;SDS011;3405;50.576;12.364;2023-02-28T01:39:53;3.00;;;2.30;;
6735;SDS011;3405;50.576;12.364;2023-02-28T01:42:19;2.83;;;2.20;;
6735;SDS011;3405;50.576;12.364;2023-02-28T01:47:20;3.08;;;2.50;;
6735;SDS011;3405;50.576;12.364;2023-02-28T01:49:46;2.45;;;2.25;;
6735;SDS011;3405;50.576;12.364;2023-02-28T01:52:13;2.35;;;2.05;;
6735;SDS011;3405;50.576;12.364;2023-02-28T01:54:43;2.47;;;2.28;;
6735;SDS011;3405;50.576;12.364;2023-02-28T01:57:12;3.17;;;2.20;;
6735;SDS011;3405;50.576;12.364;2023-02-28T01:59:40;2.65;;;2.10;;
6735;SDS011;3405;50.576;12.364;2023-02-28T02:02:17;2.30;;;2.10;;
6735;SDS011;3405;50.576;12.364;2023-02-28T02:04:57;2.55;;;2.22;;
6735;SDS011;3405;50.576;12.364;2023-02-28T02:07:26;2.65;;;2.30;;
6735;SDS011;3405;50.576;12.364;2023-02-28T02:10:29;2.58;;;2.35;;
6735;SDS011;3405;50.576;12.364;2023-02-28T02:13:08;2.50;;;2.30;;
6735;SDS011;3405;50.576;12.364;2023-02-28T02:15:46;3.50;;;2.60;;
6735;SDS011;3405;50.576;12.364;2023-02-28T02:21:02;2.42;;;2.22;;
6735;SDS011;3405;50.576;12.364;2023-02-28T02:23:44;2.10;;;1.90;;
6735;SDS011;3405;50.576;12.364;2023-02-28T02:29:03;2.60;;;2.40;;
6735;SDS011;3405;50.576;12.364;2023-02-28T02:34:08;2.58;;;2.38;;
6735;SDS011;3405;50.576;12.364;2023-02-28T02:36:44;2.30;;;2.10;;
6735;SDS011;3405;50.576;12.364;2023-02-28T02:39:24;2.33;;;2.13;;
6735;SDS011;3405;50.576;12.364;2023-02-28T02:41:54;2.28;;;2.08;;
6735;SDS011;3405;50.576;12.364;2023-02-28T02:46:50;2.03;;;1.90;;
6735;SDS011;3405;50.576;12.364;2023-02-28T02:49:33;3.05;;;2.13;;
6735;SDS011;3405;50.576;12.364;2023-02-28T02:52:02;2.88;;;2.58;;
6735;SDS011;3405;50.576;12.364;2023-02-28T02:54:30;2.40;;;2.13;;
6735;SDS011;3405;50.576;12.364;2023-02-28T02:56:58;2.65;;;2.10;;
6735;SDS011;3405;50.576;12.364;2023-02-28T02:59:25;2.55;;;2.00;;
6735;SDS011;3405;50.576;12.364;2023-02-28T03:01:54;2.38;;;2.17;;
6735;SDS011;3405;50.576;12.364;2023-02-28T03:04:22;2.95;;;2.03;;
6735;SDS011;3405;50.576;12.364;2023-02-28T03:06:50;2.30;;;2.10;;
6735;SDS011;3405;50.576;12.364;2023-02-28T03:09:19;2.33;;;2.13;;
6735;SDS011;3405;50.576;12.364;2023-02-28T03:11:45;2.05;;;1.90;;
6735;SDS011;3405;50.576;12.364;2023-02-28T03:19:24;2.20;;;2.00;;
6735;SDS011;3405;50.576;12.364;2023-02-28T03:22:13;2.22;;;1.83;;
6735;SDS011;3405;50.576;12.364;2023-02-28T03:24:50;2.72;;;2.08;;
6735;SDS011;3405;50.576;12.364;2023-02-28T03:29:50;2.33;;;2.00;;
6735;SDS011;3405;50.576;12.364;2023-02-28T03:32:19;2.10;;;1.80;;
6735;SDS011;3405;50.576;12.364;2023-02-28T03:34:49;1.88;;;1.77;;
6735;SDS011;3405;50.576;12.364;2023-02-28T03:37:18;2.10;;;1.90;;
6735;SDS011;3405;50.576;12.364;2023-02-28T03:39:49;2.45;;;2.25;;
6735;SDS011;3405;50.576;12.364;2023-02-28T03:42:19;2.05;;;1.85;;
6735;SDS011;3405;50.576;12.364;2023-02-28T03:45:02;2.08;;;1.88;;
6735;SDS011;3405;50.576;12.364;2023-02-28T03:47:42;2.75;;;2.40;;
6735;SDS011;3405;50.576;12.364;2023-02-28T03:50:13;2.33;;;2.00;;
6735;SDS011;3405;50.576;12.364;2023-02-28T03:52:43;2.47;;;1.95;;
6735;SDS011;3405;50.576;12.364;2023-02-28T03:55:10;2.22;;;2.00;;
6735;SDS011;3405;50.576;12.364;2023-02-28T04:00:14;2.58;;;1.95;;
6735;SDS011;3405;50.576;12.364;2023-02-28T04:02:41;2.47;;;1.77;;
6735;SDS011;3405;50.576;12.364;2023-02-28T04:05:07;2.25;;;2.00;;
6735;SDS011;3405;50.576;12.364;2023-02-28T04:07:33;2.40;;;1.92;;
6735;SDS011;3405;50.576;12.364;2023-02-28T04:09:59;2.10;;;1.90;;
6735;SDS011;3405;50.576;12.364;2023-02-28T04:12:25;2.30;;;2.10;;
6735;SDS011;3405;50.576;12.364;2023-02-28T04:14:51;1.80;;;1.70;;
6735;SDS011;3405;50.576;12.364;2023-02-28T04:17:17;2.10;;;1.92;;
6735;SDS011;3405;50.576;12.364;2023-02-28T04:19:43;2.05;;;1.90;;
6735;SDS011;3405;50.576;12.364;2023-02-28T04:22:09;3.45;;;2.00;;
6735;SDS011;3405;50.576;12.364;2023-02-28T04:24:35;3.35;;;1.92;;
6735;SDS011;3405;50.576;12.364;2023-02-28T04:27:02;7.18;;;2.35;;
6735;SDS011;3405;50.576;12.364;2023-02-28T04:29:31;11.38;;;2.17;;
6735;SDS011;3405;50.576;12.364;2023-02-28T04:31:58;3.17;;;1.70;;
6735;SDS011;3405;50.576;12.364;2023-02-28T04:34:24;6.70;;;2.00;;
6735;SDS011;3405;50.576;12.364;2023-02-28T04:36:50;3.22;;;2.10;;
6735;SDS011;3405;50.576;12.364;2023-02-28T04:39:19;5.50;;;2.47;;
6735;SDS011;3405;50.576;12.364;2023-02-28T04:41:45;2.88;;;1.85;;
6735;SDS011;3405;50.576;12.364;2023-02-28T04:44:11;5.22;;;2.45;;
6735;SDS011;3405;50.576;12.364;2023-02-28T04:46:38;6.30;;;2.20;;
6735;SDS011;3405;50.576;12.364;2023-02-28T04:49:03;3.15;;;1.95;;
6735;SDS011;3405;50.576;12.364;2023-02-28T04:51:29;2.13;;;1.83;;
6735;SDS011;3405;50.576;12.364;2023-02-28T04:53:55;4.38;;;1.85;;
6735;SDS011;3405;50.576;12.364;2023-02-28T04:56:21;4.03;;;1.85;;
6735;SDS011;3405;50.576;12.364;2023-02-28T04:58:47;2.10;;;1.90;;
6735;SDS011;3405;50.576;12.364;2023-02-28T05:01:18;5.68;;;2.40;;
6735;SDS011;3405;50.576;12.364;2023-02-28T05:03:44;2.25;;;1.88;;
6735;SDS011;3405;50.576;12.364;2023-02-28T05:06:10;9.35;;;2.47;;
6735;SDS011;3405;50.576;12.364;2023-02-28T05:08:36;2.95;;;2.20;;
6735;SDS011;3405;50.576;12.364;2023-02-28T05:11:02;5.70;;;2.17;;
6735;SDS011;3405;50.576;12.364;2023-02-28T05:13:28;5.03;;;2.42;;
6735;SDS011;3405;50.576;12.364;2023-02-28T05:15:55;5.40;;;2.00;;
6735;SDS011;3405;50.576;12.364;2023-02-28T05:18:20;3.70;;;2.25;;
6735;SDS011;3405;50.576;12.364;2023-02-28T05:20:47;6.63;;;2.25;;
6735;SDS011;3405;50.576;12.364;2023-02-28T05:23:13;4.20;;;2.25;;
6735;SDS011;3405;50.576;12.364;2023-02-28T05:25:40;7.05;;;2.10;;
6735;SDS011;3405;50.576;12.364;2023-02-28T05:28:06;5.25;;;2.40;;
6735;SDS011;3405;50.576;12.364;2023-02-28T05:30:32;3.70;;;2.10;;
6735;SDS011;3405;50.576;12.364;2023-02-28T05:32:58;5.88;;;2.28;;
6735;SDS011;3405;50.576;12.364;2023-02-28T05:35:25;2.83;;;2.20;;
6735;SDS011;3405;50.576;12.364;2023-02-28T05:37:51;5.13;;;2.10;;
6735;SDS011;3405;50.576;12.364;2023-02-28T05:40:17;4.32;;;2.80;;
6735;SDS011;3405;50.576;12.364;2023-02-28T05:42:46;4.88;;;2.22;;
6735;SDS011;3405;50.576;12.364;2023-02-28T05:45:12;4.40;;;2.67;;
6735;SDS011;3405;50.576;12.364;2023-02-28T05:47:38;7.05;;;2.38;;
6735;SDS011;3405;50.576;12.364;2023-02-28T05:50:04;5.38;;;2.70;;
6735;SDS011;3405;50.576;12.364;2023-02-28T05:52:30;3.35;;;2.42;;
6735;SDS011;3405;50.576;12.364;2023-02-28T05:54:56;5.45;;;2.63;;
6735;SDS011;3405;50.576;12.364;2023-02-28T05:57:22;4.47;;;2.17;;
6735;SDS011;3405;50.576;12.364;2023-02-28T05:59:48;4.60;;;2.70;;
6735;SDS011;3405;50.576;12.364;2023-02-28T06:02:15;4.20;;;2.53;;
6735;SDS011;3405;50.576;12.364;2023-02-28T06:04:41;3.38;;;2.30;;
6735;SDS011;3405;50.576;12.364;2023-02-28T06:07:07;3.60;;;2.40;;
6735;SDS011;3405;50.576;12.364;2023-02-28T06:09:33;4.10;;;2.50;;
6735;SDS011;3405;50.576;12.364;2023-02-28T06:12:00;4.65;;;2.50;;
6735;SDS011;3405;50.576;12.364;2023-02-28T06:14:28;3.10;;;2.22;;
6735;SDS011;3405;50.576;12.364;2023-02-28T06:16:56;4.55;;;2.78;;
6735;SDS011;3405;50.576;12.364;2023-02-28T06:19:21;4.78;;;2.72;;
6735;SDS011;3405;50.576;12.364;2023-02-28T06:21:50;4.82;;;2.75;;
6735;SDS011;3405;50.576;12.364;2023-02-28T06:24:17;3.20;;;2.30;;
6735;SDS011;3405;50.576;12.364;2023-02-28T06:26:43;3.30;;;2.22;;
6735;SDS011;3405;50.576;12.364;2023-02-28T06:29:09;3.75;;;2.20;;
6735;SDS011;3405;50.576;12.364;2023-02-28T06:31:35;4.15;;;2.35;;
6735;SDS011;3405;50.576;12.364;2023-02-28T06:34:01;4.00;;;2.40;;
6735;SDS011;3405;50.576;12.364;2023-02-28T06:36:27;5.45;;;2.80;;
6735;SDS011;3405;50.576;12.364;2023-02-28T06:38:53;3.25;;;2.30;;
6735;SDS011;3405;50.576;12.364;2023-02-28T06:41:24;3.50;;;2.42;;
6735;SDS011;3405;50.576;12.364;2023-02-28T06:43:50;4.45;;;2.65;;
6735;SDS011;3405;50.576;12.364;2023-02-28T06:46:16;3.40;;;2.50;;
6735;SDS011;3405;50.576;12.364;2023-02-28T06:48:43;3.70;;;2.55;;
6735;SDS011;3405;50.576;12.364;2023-02-28T06:51:17;3.22;;;2.70;;
6735;SDS011;3405;50.576;12.364;2023-02-28T06:53:45;4.55;;;3.05;;
6735;SDS011;3405;50.576;12.364;2023-02-28T06:56:12;4.68;;;3.00;;
6735;SDS011;3405;50.576;12.364;2023-02-28T06:58:38;4.43;;;3.30;;
6735;SDS011;3405;50.576;12.364;2023-02-28T07:01:05;3.92;;;2.83;;
6735;SDS011;3405;50.576;12.364;2023-02-28T07:03:31;4.13;;;2.83;;
6735;SDS011;3405;50.576;12.364;2023-02-28T07:05:57;4.57;;;3.05;;
6735;SDS011;3405;50.576;12.364;2023-02-28T07:08:24;4.88;;;2.97;;
6735;SDS011;3405;50.576;12.364;2023-02-28T07:10:53;3.83;;;2.88;;
6735;SDS011;3405;50.576;12.364;2023-02-28T07:13:19;4.68;;;2.88;;
6735;SDS011;3405;50.576;12.364;2023-02-28T07:15:52;4.03;;;2.90;;
6735;SDS011;3405;50.576;12.364;2023-02-28T07:18:18;4.20;;;3.28;;
6735;SDS011;3405;50.576;12.364;2023-02-28T07:20:44;3.67;;;2.80;;
6735;SDS011;3405;50.576;12.364;2023-02-28T07:23:10;4.43;;;3.33;;
6735;SDS011;3405;50.576;12.364;2023-02-28T07:25:36;5.80;;;2.95;;
6735;SDS011;3405;50.576;12.364;2023-02-28T07:28:02;3.80;;;3.33;;
6735;SDS011;3405;50.576;12.364;2023-02-28T07:30:28;2.88;;;2.50;;
6735;SDS011;3405;50.576;12.364;2023-02-28T07:32:54;4.53;;;3.00;;
6735;SDS011;3405;50.576;12.364;2023-02-28T07:35:21;4.22;;;3.22;;
6735;SDS011;3405;50.576;12.364;2023-02-28T07:37:47;3.92;;;2.92;;
6735;SDS011;3405;50.576;12.364;2023-02-28T07:40:13;3.70;;;2.55;;
6735;SDS011;3405;50.576;12.364;2023-02-28T07:42:39;5.05;;;2.85;;
6735;SDS011;3405;50.576;12.364;2023-02-28T07:45:06;4.07;;;2.90;;
6735;SDS011;3405;50.576;12.364;2023-02-28T07:47:32;3.42;;;3.00;;
6735;SDS011;3405;50.576;12.364;2023-02-28T07:49:58;4.13;;;2.95;;
6735;SDS011;3405;50.576;12.364;2023-02-28T07:52:24;3.75;;;2.85;;
6735;SDS011;3405;50.576;12.364;2023-02-28T07:54:50;3.65;;;3.00;;
6735;SDS011;3405;50.576;12.364;2023-02-28T07:57:16;3.83;;;3.10;;
6735;SDS011;3405;50.576;12.364;2023-02-28T07:59:42;3.70;;;2.83;;
6735;SDS011;3405;50.576;12.364;2023-02-28T08:02:15;4.28;;;2.63;;
6735;SDS011;3405;50.576;12.364;2023-02-28T08:04:41;3.35;;;2.72;;
6735;SDS011;3405;50.576;12.364;2023-02-28T08:07:07;3.88;;;2.70;;
6735;SDS011;3405;50.576;12.364;2023-02-28T08:09:34;3.50;;;2.70;;
6735;SDS011;3405;50.576;12.364;2023-02-28T08:12:00;3.38;;;2.78;;
6735;SDS011;3405;50.576;12.364;2023-02-28T08:14:25;2.60;;;2.40;;
6735;SDS011;3405;50.576;12.364;2023-02-28T08:16:51;3.30;;;3.00;;
6735;SDS011;3405;50.576;12.364;2023-02-28T08:19:17;3.85;;;2.70;;
6735;SDS011;3405;50.576;12.364;2023-02-28T08:21:43;3.75;;;2.53;;
6735;SDS011;3405;50.576;12.364;2023-02-28T08:24:09;2.70;;;2.45;;
6735;SDS011;3405;50.576;12.364;2023-02-28T08:26:35;2.88;;;2.60;;
6735;SDS011;3405;50.576;12.364;2023-02-28T08:29:01;2.95;;;2.38;;
6735;SDS011;3405;50.576;12.364;2023-02-28T08:31:27;2.38;;;2.17;;
6735;SDS011;3405;50.576;12.364;2023-02-28T08:33:53;2.30;;;2.10;;
6735;SDS011;3405;50.576;12.364;2023-02-28T08:36:21;2.65;;;2.22;;
6735;SDS011;3405;50.576;12.364;2023-02-28T08:38:47;2.53;;;2.33;;
6735;SDS011;3405;50.576;12.364;2023-02-28T08:41:13;3.45;;;2.60;;
6735;SDS011;3405;50.576;12.364;2023-02-28T08:43:39;3.25;;;2.65;;
6735;SDS011;3405;50.576;12.364;2023-02-28T08:46:06;2.88;;;2.35;;
6735;SDS011;3405;50.576;12.364;2023-02-28T08:48:33;3.33;;;2.50;;
6735;SDS011;3405;50.576;12.364;2023-02-28T08:51:00;4.30;;;2.72;;
6735;SDS011;3405;50.576;12.364;2023-02-28T08:53:26;2.67;;;2.30;;
6735;SDS011;3405;50.576;12.364;2023-02-28T08:55:56;2.47;;;2.25;;
6735;SDS011;3405;50.576;12.364;2023-02-28T08:58:22;3.38;;;2.55;;
6735;SDS011;3405;50.576;12.364;2023-02-28T09:00:48;2.40;;;2.20;;
6735;SDS011;3405;50.576;12.364;2023-02-28T09:03:14;3.10;;;2.35;;
6735;SDS011;3405;50.576;12.364;2023-02-28T09:05:40;3.08;;;2.38;;
6735;SDS011;3405;50.576;12.364;2023-02-28T09:08:06;2.67;;;2.33;;
6735;SDS011;3405;50.576;12.364;2023-02-28T09:10:32;3.15;;;2.20;;
6735;SDS011;3405;50.576;12.364;2023-02-28T09:12:58;2.95;;;2.38;;
6735;SDS011;3405;50.576;12.364;2023-02-28T09:15:24;2.42;;;2.20;;
6735;SDS011;3405;50.576;12.364;2023-02-28T09:17:50;2.92;;;2.33;;
6735;SDS011;3405;50.576;12.364;2023-02-28T09:20:16;2.78;;;2.35;;
6735;SDS011;3405;50.576;12.364;2023-02-28T09:22:42;2.35;;;1.98;;
6735;SDS011;3405;50.576;12.364;2023-02-28T09:25:08;2.75;;;2.20;;
6735;SDS011;3405;50.576;12.364;2023-02-28T09:27:34;2.78;;;2.17;;
6735;SDS011;3405;50.576;12.364;2023-02-28T09:29:59;3.30;;;2.40;;
6735;SDS011;3405;50.576;12.364;2023-02-28T09:32:25;2.70;;;2.25;;
6735;SDS011;3405;50.576;12.364;2023-02-28T09:34:51;3.55;;;2.30;;
6735;SDS011;3405;50.576;12.364;2023-02-28T09:37:17;2.72;;;2.15;;
6735;SDS011;3405;50.576;12.364;2023-02-28T09:39:43;2.35;;;2.15;;
6735;SDS011;3405;50.576;12.364;2023-02-28T09:42:21;3.30;;;2.53;;
6735;SDS011;3405;50.576;12.364;2023-02-28T09:44:49;2.88;;;2.20;;
6735;SDS011;3405;50.576;12.364;2023-02-28T09:49:47;2.65;;;2.17;;
6735;SDS011;3405;50.576;12.364;2023-02-28T09:52:18;2.58;;;2.20;;
6735;SDS011;3405;50.576;12.364;2023-02-28T09:54:44;3.10;;;2.45;;
6735;SDS011;3405;50.576;12.364;2023-02-28T09:57:29;2.63;;;2.00;;
6735;SDS011;3405;50.576;12.364;2023-02-28T10:00:06;3.30;;;2.45;;
6735;SDS011;3405;50.576;12.364;2023-02-28T10:05:33;3.05;;;2.33;;
6735;SDS011;3405;50.576;12.364;2023-02-28T10:08:14;2.20;;;2.00;;
6735;SDS011;3405;50.576;12.364;2023-02-28T10:10:41;2.85;;;2.20;;
6735;SDS011;3405;50.576;12.364;2023-02-28T10:15:46;2.53;;;2.20;;
6735;SDS011;3405;50.576;12.364;2023-02-28T10:18:14;2.00;;;1.80;;
6735;SDS011;3405;50.576;12.364;2023-02-28T10:20:42;2.40;;;1.90;;
6735;SDS011;3405;50.576;12.364;2023-02-28T10:25:36;2.63;;;2.25;;
6735;SDS011;3405;50.576;12.364;2023-02-28T10:28:11;3.50;;;2.22;;
6735;SDS011;3405;50.576;12.364;2023-02-28T10:30:37;2.35;;;2.00;;
6735;SDS011;3405;50.576;12.364;2023-02-28T10:33:04;2.05;;;1.85;;
6735;SDS011;3405;50.576;12.364;2023-02-28T10:35:30;2.47;;;1.95;;
6735;SDS011;3405;50.576;12.364;2023-02-28T10:37:59;2.33;;;2.08;;
6735;SDS011;3405;50.576;12.364;2023-02-28T10:40:33;4.03;;;2.33;;
6735;SDS011;3405;50.576;12.364;2023-02-28T10:45:38;2.65;;;2.17;;
6735;SDS011;3405;50.576;12.364;2023-02-28T10:53:28;2.22;;;2.03;;
6735;SDS011;3405;50.576;12.364;2023-02-28T11:01:18;2.67;;;1.90;;
6735;SDS011;3405;50.576;12.364;2023-02-28T11:03:44;2.17;;;1.85;;
6735;SDS011;3405;50.576;12.364;2023-02-28T11:06:13;2.33;;;1.80;;
6735;SDS011;3405;50.576;12.364;2023-02-28T11:08:44;2.05;;;1.80;;
6735;SDS011;3405;50.576;12.364;2023-02-28T11:11:11;2.35;;;1.75;;
6735;SDS011;3405;50.576;12.364;2023-02-28T11:13:37;2.25;;;1.90;;
6735;SDS011;3405;50.576;12.364;2023-02-28T11:16:07;2.67;;;2.08;;
6735;SDS011;3405;50.576;12.364;2023-02-28T11:21:10;2.10;;;1.90;;
6735;SDS011;3405;50.576;12.364;2023-02-28T11:23:41;1.77;;;1.67;;
6735;SDS011;3405;50.576;12.364;2023-02-28T11:26:08;2.17;;;1.90;;
6735;SDS011;3405;50.576;12.364;2023-02-28T11:28:39;1.83;;;1.73;;
6735;SDS011;3405;50.576;12.364;2023-02-28T11:36:08;1.85;;;1.75;;
6735;SDS011;3405;50.576;12.364;2023-02-28T11:38:35;2.05;;;1.85;;
6735;SDS011;3405;50.576;12.364;2023-02-28T11:41:11;1.77;;;1.60;;
6735;SDS011;3405;50.576;12.364;2023-02-28T11:56:11;2.55;;;2.08;;
6735;SDS011;3405;50.576;12.364;2023-02-28T12:01:37;2.05;;;1.83;;
6735;SDS011;3405;50.576;12.364;2023-02-28T12:06:45;1.52;;;1.42;;
6735;SDS011;3405;50.576;12.364;2023-02-28T12:09:20;1.60;;;1.50;;
6735;SDS011;3405;50.576;12.364;2023-02-28T12:11:51;1.67;;;1.58;;
6735;SDS011;3405;50.576;12.364;2023-02-28T12:17:24;1.83;;;1.60;;
6735;SDS011;3405;50.576;12.364;2023-02-28T12:22:29;2.00;;;1.50;;
6735;SDS011;3405;50.576;12.364;2023-02-28T12:27:41;1.80;;;1.70;;
6735;SDS011;3405;50.576;12.364;2023-02-28T12:30:16;1.52;;;1.42;;
6735;SDS011;3405;50.576;12.364;2023-02-28T12:32:44;1.50;;;1.40;;
6735;SDS011;3405;50.576;12.364;2023-02-28T12:35:12;1.63;;;1.52;;
6735;SDS011;3405;50.576;12.364;2023-02-28T12:38:01;1.63;;;1.50;;
6735;SDS011;3405;50.576;12.364;2023-02-28T12:40:41;1.70;;;1.60;;
6735;SDS011;3405;50.576;12.364;2023-02-28T12:43:08;1.45;;;1.35;;
6735;SDS011;3405;50.576;12.364;2023-02-28T12:45:43;1.80;;;1.42;;
6735;SDS011;3405;50.576;12.364;2023-02-28T12:48:15;2.20;;;1.80;;
6735;SDS011;3405;50.576;12.364;2023-02-28T12:50:42;1.63;;;1.52;;
6735;SDS011;3405;50.576;12.364;2023-02-28T12:56:36;1.50;;;1.40;;
6735;SDS011;3405;50.576;12.364;2023-02-28T12:58:47;1.60;;;1.50;;
6735;SDS011;3405;50.576;12.364;2023-02-28T13:06:52;1.40;;;1.30;;
6735;SDS011;3405;50.576;12.364;2023-02-28T13:09:22;2.10;;;1.55;;
6735;SDS011;3405;50.576;12.364;2023-02-28T13:11:49;1.50;;;1.40;;
6735;SDS011;3405;50.576;12.364;2023-02-28T13:16:54;1.88;;;1.70;;
6735;SDS011;3405;50.576;12.364;2023-02-28T13:19:21;1.77;;;1.65;;
6735;SDS011;3405;50.576;12.364;2023-02-28T13:21:48;1.60;;;1.50;;
6735;SDS011;3405;50.576;12.364;2023-02-28T13:29:31;1.77;;;1.67;;
6735;SDS011;3405;50.576;12.364;2023-02-28T13:47:41;1.50;;;1.33;;
6735;SDS011;3405;50.576;12.364;2023-02-28T13:50:14;2.22;;;1.80;;
6735;SDS011;3405;50.576;12.364;2023-02-28T13:52:56;2.47;;;1.65;;
6735;SDS011;3405;50.576;12.364;2023-02-28T13:58:00;1.98;;;1.70;;
6735;SDS011;3405;50.576;12.364;2023-02-28T14:03:10;2.03;;;1.83;;
6735;SDS011;3405;50.576;12.364;2023-02-28T14:05:37;1.52;;;1.42;;
6735;SDS011;3405;50.576;12.364;2023-02-28T14:08:04;1.75;;;1.60;;
6735;SDS011;3405;50.576;12.364;2023-02-28T14:10:34;1.63;;;1.52;;
6735;SDS011;3405;50.576;12.364;2023-02-28T14:18:20;1.63;;;1.52;;
6735;SDS011;3405;50.576;12.364;2023-02-28T14:20:47;1.45;;;1.35;;
6735;SDS011;3405;50.576;12.364;2023-02-28T14:23:16;1.95;;;1.73;;
6735;SDS011;3405;50.576;12.364;2023-02-28T14:25:47;1.90;;;1.75;;
6735;SDS011;3405;50.576;12.364;2023-02-28T14:28:19;1.77;;;1.67;;
6735;SDS011;3405;50.576;12.364;2023-02-28T14:30:56;1.75;;;1.65;;
6735;SDS011;3405;50.576;12.364;2023-02-28T14:33:25;1.73;;;1.63;;
6735;SDS011;3405;50.576;12.364;2023-02-28T14:36:00;1.42;;;1.33;;
6735;SDS011;3405;50.576;12.364;2023-02-28T14:38:27;2.15;;;1.60;;
6735;SDS011;3405;50.576;12.364;2023-02-28T14:40:56;2.17;;;1.90;;
6735;SDS011;3405;50.576;12.364;2023-02-28T14:43:24;2.08;;;1.88;;
6735;SDS011;3405;50.576;12.364;2023-02-28T14:45:51;2.58;;;1.90;;
6735;SDS011;3405;50.576;12.364;2023-02-28T14:48:18;1.60;;;1.50;;
6735;SDS011;3405;50.576;12.364;2023-02-28T14:50:48;1.75;;;1.65;;
6735;SDS011;3405;50.576;12.364;2023-02-28T14:53:18;1.70;;;1.60;;
6735;SDS011;3405;50.576;12.364;2023-02-28T14:55:45;1.65;;;1.55;;
6735;SDS011;3405;50.576;12.364;2023-02-28T14:58:22;2.47;;;1.90;;
6735;SDS011;3405;50.576;12.364;2023-02-28T15:00:50;3.47;;;1.92;;
6735;SDS011;3405;50.576;12.364;2023-02-28T15:03:19;1.60;;;1.50;;
6735;SDS011;3405;50.576;12.364;2023-02-28T15:06:19;1.92;;;1.73;;
6735;SDS011;3405;50.576;12.364;2023-02-28T15:08:38;1.73;;;1.63;;
6735;SDS011;3405;50.576;12.364;2023-02-28T15:11:19;1.60;;;1.50;;
6735;SDS011;3405;50.576;12.364;2023-02-28T15:13:50;1.90;;;1.70;;
6735;SDS011;3405;50.576;12.364;2023-02-28T15:16:17;3.13;;;1.42;;
6735;SDS011;3405;50.576;12.364;2023-02-28T15:18:58;2.17;;;1.67;;
6735;SDS011;3405;50.576;12.364;2023-02-28T15:21:25;2.38;;;1.92;;
6735;SDS011;3405;50.576;12.364;2023-02-28T15:24:37;2.05;;;1.35;;
6735;SDS011;3405;50.576;12.364;2023-02-28T15:26:42;1.80;;;1.70;;
6735;SDS011;3405;50.576;12.364;2023-02-28T15:29:15;1.98;;;1.67;;
6735;SDS011;3405;50.576;12.364;2023-02-28T15:31:46;2.72;;;1.60;;
6735;SDS011;3405;50.576;12.364;2023-02-28T15:39:57;2.03;;;1.70;;
6735;SDS011;3405;50.576;12.364;2023-02-28T15:42:27;2.20;;;2.00;;
6735;SDS011;3405;50.576;12.364;2023-02-28T15:44:53;6.03;;;1.90;;
6735;SDS011;3405;50.576;12.364;2023-02-28T15:47:20;2.00;;;1.80;;
6735;SDS011;3405;50.576;12.364;2023-02-28T15:49:48;2.25;;;1.77;;
6735;SDS011;3405;50.576;12.364;2023-02-28T15:52:16;2.08;;;1.88;;
6735;SDS011;3405;50.576;12.364;2023-02-28T15:54:42;2.13;;;1.60;;
6735;SDS011;3405;50.576;12.364;2023-02-28T15:57:17;1.88;;;1.75;;
6735;SDS011;3405;50.576;12.364;2023-02-28T15:59:50;1.83;;;1.70;;
6735;SDS011;3405;50.576;12.364;2023-02-28T16:02:17;2.00;;;1.80;;
6735;SDS011;3405;50.576;12.364;2023-02-28T16:05:45;1.90;;;1.80;;
6735;SDS011;3405;50.576;12.364;2023-02-28T16:07:41;1.90;;;1.80;;
6735;SDS011;3405;50.576;12.364;2023-02-28T16:10:08;2.45;;;1.77;;
6735;SDS011;3405;50.576;12.364;2023-02-28T16:12:35;2.33;;;2.13;;
6735;SDS011;3405;50.576;12.364;2023-02-28T16:15:05;2.67;;;1.88;;
6735;SDS011;3405;50.576;12.364;2023-02-28T16:17:35;2.20;;;1.90;;
6735;SDS011;3405;50.576;12.364;2023-02-28T16:23:01;2.40;;;1.98;;
6735;SDS011;3405;50.576;12.364;2023-02-28T16:25:37;2.85;;;2.20;;
6735;SDS011;3405;50.576;12.364;2023-02-28T16:28:04;2.00;;;1.90;;
6735;SDS011;3405;50.576;12.364;2023-02-28T16:30:32;2.83;;;2.10;;
6735;SDS011;3405;50.576;12.364;2023-02-28T16:32:58;2.20;;;1.70;;
6735;SDS011;3405;50.576;12.364;2023-02-28T16:35:27;2.50;;;1.90;;
6735;SDS011;3405;50.576;12.364;2023-02-28T16:37:53;2.42;;;2.22;;
6735;SDS011;3405;50.576;12.364;2023-02-28T16:40:21;2.30;;;2.10;;
6735;SDS011;3405;50.576;12.364;2023-02-28T16:42:49;2.30;;;2.10;;
6735;SDS011;3405;50.576;12.364;2023-02-28T16:45:16;2.17;;;1.98;;
6735;SDS011;3405;50.576;12.364;2023-02-28T16:47:44;3.13;;;1.90;;
6735;SDS011;3405;50.576;12.364;2023-02-28T16:50:28;2.28;;;1.92;;
6735;SDS011;3405;50.576;12.364;2023-02-28T16:52:55;3.05;;;2.20;;
6735;SDS011;3405;50.576;12.364;2023-02-28T16:55:24;2.47;;;2.10;;
6735;SDS011;3405;50.576;12.364;2023-02-28T16:57:52;3.00;;;2.22;;
6735;SDS011;3405;50.576;12.364;2023-02-28T17:00:18;2.30;;;2.10;;
6735;SDS011;3405;50.576;12.364;2023-02-28T17:02:44;2.17;;;1.90;;
6735;SDS011;3405;50.576;12.364;2023-02-28T17:05:11;2.20;;;2.00;;
6735;SDS011;3405;50.576;12.364;2023-02-28T17:07:37;2.45;;;2.20;;
6735;SDS011;3405;50.576;12.364;2023-02-28T17:10:10;1.98;;;1.88;;
6735;SDS011;3405;50.576;12.364;2023-02-28T17:12:36;2.50;;;2.20;;
6735;SDS011;3405;50.576;12.364;2023-02-28T17:15:02;3.00;;;2.05;;
6735;SDS011;3405;50.576;12.364;2023-02-28T17:17:28;2.72;;;2.03;;
6735;SDS011;3405;50.576;12.364;2023-02-28T17:19:55;2.58;;;2.38;;